Latest Weather Observations for Territory Grape Farm

IDD60801

Issued at 7:01 pm CST Friday 22 May 2015 (issued every 30 minutes, with the page automatically refreshed every 10 minutes)

About weather observations | Map of weather stations | Latest weather observations for NT | Other Formats
Station Details ID: 015643 Name: TERRITORY GRAPE FARM Lat: -22.45 Lon: 133.64 Height: 565.6 m
Data from the previous 72 hours. | See also: Recent months at Territory Grape Farm
Date/Time
CST
Temp
°C
App
Temp
°C
Dew
Point
Rel
Hum
%
Delta-T
°C
Wind Press
QNH
hPa
Press
MSL
hPa
Rain
since 9 am
mm
Dir
 
Spd
km/h
Gust
km/h
Spd
kts
Gust
kts
22/07:00pm 16.1 11.3 -2.4 28 7.7 - 13 15 7 8 1024.2 - -
22/06:30pm 17.1 12.7 -2.5 26 8.2 - 11 13 6 7 1024.1 1022.5 -
22/06:00pm 17.8 13.0 -2.5 25 8.6 - 13 17 7 9 1023.9 1022.3 -
22/05:30pm 17.9 - -2.9 24 8.7 - - - - - 1024.2 1022.6 -
22/05:00pm 19.0 - -3.8 21 9.5 - - - - - 1024.2 - -
22/04:30pm 19.3 - -3.5 21 9.6 - - - - - 1024.0 1022.4 -
22/04:00pm 19.4 - -2.8 22 9.5 - - - - - 1023.9 - -
22/03:30pm 19.1 - -2.5 23 9.2 - - - - - 1024.0 1022.4 -
22/03:00pm 18.8 - -2.2 24 9.0 - - - - - 1023.9 1022.3 0.0
22/02:30pm 18.1 - -2.2 25 8.7 - - - - - 1024.2 1022.6 -
22/02:00pm 18.3 - -2.6 24 8.9 - - - - - 1024.5 - -
22/01:30pm 17.7 - -2.0 26 8.4 - - - - - 1024.9 1023.3 -
22/01:00pm 17.4 - -1.3 28 8.1 - - - - - 1025.3 - -
22/12:30pm 16.9 - -1.2 29 7.8 - - - - - 1026.3 1024.7 -
22/12:00pm 15.9 - -1.2 31 7.3 - - - - - 1026.6 1025.0 -
22/11:30am 15.2 9.3 -0.9 33 6.9 - 20 26 11 14 1026.8 1025.2 -
22/11:00am 14.4 - -0.8 35 6.5 - - - - - 1026.9 - -
22/10:30am 14.0 7.7 -0.8 36 6.2 - 22 28 12 15 1027.6 1026.0 -
22/10:00am 13.0 - -0.6 39 5.8 - - - - - 1027.9 - -
22/09:30am 12.0 - -0.2 43 5.1 - - - - - 1027.6 1026.0 -
22/09:00am 11.2 - 0.0 46 4.7 - - - - - 1027.9 1026.3 0.0
22/08:30am 11.2 6.0 0.3 47 4.6 - 17 20 9 11 1027.7 1026.1 -
22/08:00am 8.6 6.4 1.1 59 3.1 - 2 4 1 2 1027.1 - -
22/07:30am 5.9 - 0.5 68 2.2 - - - - - 1026.8 1025.2 -
22/07:00am 5.2 - 0.4 71 1.9 - - - - - 1026.4 - -
22/06:30am 5.9 - 0.5 68 2.2 - - - - - 1025.9 1024.3 -
22/06:00am 6.6 3.0 0.7 66 2.4 - 9 9 5 5 1026.0 1024.4 -
22/05:30am 7.1 - 1.0 65 2.5 - - - - - 1025.7 1024.1 -
22/05:00am 7.1 - 1.0 65 2.5 - - - - - 1025.5 - -
22/04:30am 7.6 - 1.0 63 2.7 - - - - - 1025.5 1024.0 -
22/04:00am 8.2 4.7 1.1 61 3.0 - 9 9 5 5 1025.4 - -
22/03:30am 9.1 4.8 1.3 58 3.3 - 13 17 7 9 1025.2 1023.6 -
22/03:00am 9.3 - 1.5 58 3.3 - - - - - 1025.1 1023.5 0.0
22/02:30am 9.7 5.1 1.6 57 3.5 - 15 17 8 9 1025.1 1023.5 -
22/02:00am 10.5 5.9 1.3 53 3.9 - 15 20 8 11 1025.5 - -
22/01:30am 11.1 - 1.4 51 4.2 - - - - - 1025.9 1024.3 -
22/01:00am 11.5 - 1.5 50 4.4 - - - - - 1026.1 - -
22/12:30am 11.2 - 2.2 54 4.0 - - - - - 1026.2 1024.6 -
22/12:00am 11.9 7.1 2.6 53 4.2 - 17 20 9 11 1026.4 1024.8 -
 
Date/Time
CST
Temp
°C
App
Temp
°C
Dew
Point
Rel
Hum
%
Delta-T
°C
Wind Press
QNH
hPa
Press
MSL
hPa
Rain
since 9 am
mm
Dir
 
Spd
km/h
Gust
km/h
Spd
kts
Gust
kts
21/11:30pm 12.4 - 2.8 52 4.3 - - - - - 1026.5 1024.9 -
21/11:00pm 13.0 - 2.8 50 4.6 - - - - - 1026.7 - -
21/10:30pm 13.6 - 2.8 48 4.9 - - - - - 1026.6 1025.0 -
21/10:00pm 14.0 - 3.2 48 5.0 - - - - - 1026.6 - -
21/09:30pm 14.7 - 3.5 47 5.2 - - - - - 1026.5 1024.9 -
21/09:00pm 15.4 - 3.9 46 5.4 - - - - - 1026.4 1024.8 0.0
21/08:30pm 15.6 - 4.0 46 5.5 - - - - - 1026.2 1024.6 -
21/08:00pm 15.9 - 4.3 46 5.6 - - - - - 1025.5 - -
21/07:30pm 16.5 - 4.5 45 5.8 - - - - - 1025.2 1023.6 -
21/07:00pm 17.4 - 4.7 43 6.2 - - - - - 1024.8 - -
21/06:30pm 17.9 - 4.5 41 6.5 - - - - - 1024.3 1022.7 -
21/06:00pm 18.9 - 4.3 38 7.1 - - - - - 1023.8 1022.2 -
21/05:30pm 19.8 - 4.3 36 7.6 - - - - - 1023.6 1022.0 -
21/05:00pm 20.6 - 4.2 34 8.1 - - - - - 1023.3 - -
21/04:30pm 20.7 - 4.3 34 8.1 - - - - - 1023.1 1021.5 -
21/04:00pm 20.9 - 4.5 34 8.2 - - - - - 1023.0 - -
21/03:30pm 21.8 - 4.8 33 8.6 - - - - - 1023.1 1021.5 -
21/03:00pm 21.4 - 4.9 34 8.3 - - - - - 1023.1 1021.5 0.0
21/02:30pm 21.0 - 4.6 34 8.2 - - - - - 1023.2 1021.6 -
21/02:00pm 20.8 - 4.4 34 8.2 - - - - - 1023.4 - -
21/01:30pm 21.2 - 5.1 35 8.1 - - - - - 1024.0 1022.4 -
21/01:00pm 20.6 - 5.4 37 7.7 - - - - - 1024.5 - -
21/12:30pm 19.6 - 5.6 40 7.1 - - - - - 1025.0 1023.4 -
21/12:00pm 19.5 - 5.9 41 6.9 - - - - - 1025.2 1023.6 -
21/11:30am 18.9 - 6.4 44 6.4 - - - - - 1025.9 1024.3 -
21/11:00am 18.7 - 6.9 46 6.1 - - - - - 1026.1 - -
21/10:30am 18.4 - 6.9 47 5.9 - - - - - 1026.4 1024.8 -
21/10:00am 17.6 - 7.1 50 5.4 - - - - - 1026.6 - -
21/09:30am 16.8 - 6.9 52 5.0 - - - - - 1026.6 1025.0 -
21/09:00am 16.1 - 7.1 55 4.6 - - - - - 1026.0 1024.4 0.0
21/08:30am 15.7 - 7.7 59 4.1 - - - - - 1026.0 1024.4 -
21/08:00am 15.0 - 7.8 62 3.7 - - - - - 1025.3 - -
21/07:30am 14.5 - 7.8 64 3.4 - - - - - 1024.8 1023.2 -
21/07:00am 14.6 - 7.9 64 3.4 - - - - - 1024.4 - -
21/06:30am 14.6 - 7.2 61 3.7 - - - - - 1023.8 1022.2 -
21/06:00am 14.7 - 7.0 60 3.9 - - - - - 1023.2 1021.6 -
21/05:30am 14.7 - 6.8 59 4.0 - - - - - 1023.0 1021.4 -
21/05:00am 15.0 - 6.3 56 4.3 - - - - - 1022.7 - -
21/04:30am 15.5 - 6.2 54 4.6 - - - - - 1022.6 1021.0 -
21/04:00am 16.1 - 6.3 52 4.9 - - - - - 1022.3 - -
21/03:30am 16.5 - 6.3 51 5.1 - - - - - 1022.3 1020.7 -
21/03:00am 16.8 - 6.0 49 5.4 - - - - - 1022.2 1020.5 0.0
21/02:30am 16.2 - 6.1 51 5.0 - - - - - 1022.1 1020.4 -
21/02:00am 15.5 - 5.4 51 5.0 - - - - - 1022.2 - -
21/01:30am 15.4 - 5.3 51 4.9 - - - - - 1022.1 1020.4 -
21/01:00am 15.4 - 4.8 49 5.1 - - - - - 1022.1 - -
21/12:30am 15.9 - 4.9 48 5.3 - - - - - 1022.2 1020.5 -
21/12:00am 16.4 - 5.1 47 5.5 - - - - - 1022.2 1020.5 -
 
Date/Time
CST
Temp
°C
App
Temp
°C
Dew
Point
Rel
Hum
%
Delta-T
°C
Wind Press
QNH
hPa
Press
MSL
hPa
Rain
since 9 am
mm
Dir
 
Spd
km/h
Gust
km/h
Spd
kts
Gust
kts
20/11:30pm 16.2 - 4.6 46 5.6 - - - - - 1022.2 1020.5 -
20/11:00pm 17.3 - 4.9 44 6.1 - - - - - 1022.1 - -
20/10:30pm 17.7 - 4.6 42 6.4 - - - - - 1021.7 1020.1 -
20/10:00pm 18.6 - 4.8 40 6.8 - - - - - 1021.7 - -
20/09:30pm 19.7 - 4.6 37 7.5 - - - - - 1022.0 1020.3 -
20/09:00pm 19.2 - 4.6 38 7.2 - - - - - 1021.8 1020.2 0.0
20/08:30pm 18.9 - 4.7 39 7.0 - - - - - 1021.4 1019.8 -
20/08:00pm 19.8 - 4.3 36 7.7 - - - - - 1021.1 - -
20/07:30pm 20.7 - 4.3 34 8.1 - - - - - 1020.7 1019.1 -
20/07:00pm 22.4 - 4.0 30 9.2 - - - - - 1020.4 - -
20/06:30pm 23.9 - 4.3 28 9.9 - - - - - 1019.8 1018.2 -
20/06:00pm 24.5 - 3.8 26 10.4 - - - - - 1019.4 1017.8 -
20/05:30pm 25.1 - 3.7 25 10.8 - - - - - 1019.0 1017.3 -
20/05:00pm 25.8 - 3.7 24 11.3 - - - - - 1018.6 - -
20/04:30pm 26.4 - 3.6 23 11.6 - - - - - 1018.3 1016.6 -
20/04:00pm 26.7 - 3.9 23 11.7 - - - - - 1018.0 - -
20/03:30pm 26.4 - 3.6 23 11.6 - - - - - 1018.0 1016.4 -
20/03:00pm 26.4 - 3.6 23 11.6 - - - - - 1018.2 1016.5 0.0
20/02:30pm 26.7 - 3.9 23 11.7 - - - - - 1018.2 1016.5 -
20/02:00pm 26.9 - 3.4 22 12.0 - - - - - 1018.3 - -
20/01:30pm 26.1 - 4.0 24 11.3 - - - - - 1018.9 1017.2 -
20/01:00pm 25.9 - 3.2 23 11.5 - - - - - 1019.4 - -
20/12:30pm 26.0 - 3.3 23 11.5 - - - - - 1019.9 1018.3 -
20/12:00pm 25.6 - 2.9 23 11.4 - - - - - 1020.2 1018.5 -
20/11:30am 25.7 - 3.0 23 11.4 - - - - - 1020.4 1018.7 -
20/11:00am 25.1 - 3.1 24 11.0 - - - - - 1020.8 - -
20/10:30am 24.0 - 2.2 24 10.6 - - - - - 1021.0 1019.4 -
20/10:00am 23.2 - 3.2 27 9.9 - - - - - 1021.1 - -
20/09:30am 22.6 - 4.2 30 9.2 - - - - - 1020.8 1019.2 -
20/09:00am 20.2 - 4.3 35 7.9 - - - - - 1020.5 1018.8 0.0
20/08:30am 19.1 - 4.8 39 7.1 - - - - - 1020.1 1018.4 -
20/08:00am 18.1 - 4.7 41 6.6 - - - - - 1019.7 - -
20/07:30am 17.0 - 5.0 45 5.9 - - - - - 1019.4 1017.8 -
20/07:00am 16.0 - 4.7 47 5.5 - - - - - 1018.9 - -
20/06:30am 15.7 - 4.7 48 5.3 - - - - - 1018.6 1016.9 -
20/06:00am 15.6 - 5.2 50 5.1 - - - - - 1018.4 1016.7 -
20/05:30am 15.1 - 4.8 50 5.0 - - - - - 1018.2 1016.5 -
20/05:00am 14.6 - 4.9 52 4.7 - - - - - 1017.8 - -
20/04:30am 14.1 - 4.4 52 4.6 - - - - - 1017.9 1016.3 -
20/04:00am 14.2 - 3.7 49 4.9 - - - - - 1017.7 - -
20/03:30am 15.3 - 4.1 47 5.3 - - - - - 1017.6 1016.0 -
20/03:00am 15.5 - 4.3 47 5.4 - - - - - 1017.5 1015.8 0.0
20/02:30am 16.1 - 4.5 46 5.6 - - - - - 1017.7 1016.1 -
20/02:00am 16.3 - 4.4 45 5.8 - - - - - 1017.8 - -
20/01:30am 16.5 - 4.5 45 5.8 - - - - - 1017.9 1016.3 -
20/01:00am 17.0 - 5.0 45 5.9 - - - - - 1017.6 - -
20/12:30am 16.8 - 4.8 45 5.9 - - - - - 1018.0 1016.4 -
20/12:00am 17.1 - 4.8 44 6.0 - - - - - 1018.0 1016.4 -
 
Date/Time
CST
Temp
°C
App
Temp
°C
Dew
Point
Rel
Hum
%
Delta-T
°C
Wind Press
QNH
hPa
Press
MSL
hPa
Rain
since 9 am
mm
Dir
 
Spd
km/h
Gust
km/h
Spd
kts
Gust
kts
19/11:30pm 17.0 - 5.6 47 5.7 - - - - - 1017.9 1016.3 -
19/11:00pm 15.7 - 4.1 46 5.6 - - - - - 1018.0 - -
19/10:30pm 17.4 - 5.4 45 6.0 - - - - - 1018.0 1016.4 -
19/10:00pm 17.4 - 5.4 45 6.0 - - - - - 1018.0 - -
19/09:30pm 17.8 - 4.7 42 6.4 - - - - - 1018.0 1016.4 -
19/09:00pm 18.9 - 4.3 38 7.2 - - - - - 1018.0 1016.4 0.0
19/08:30pm 19.3 - 4.6 38 7.3 - - - - - 1017.9 1016.3 -
19/08:00pm 20.8 - 4.8 35 8.0 - - - - - 1017.6 - -
19/07:30pm 20.9 - 4.0 33 8.4 - - - - - 1017.4 1015.7 -

Other Formats:

Comma delimited format used in spreadsheet applications
http://www.bom.gov.au/fwo/IDD60801/IDD60801.94328.axf

JavaScript Object Notation format (JSON) in row-major order
http://www.bom.gov.au/fwo/IDD60801/IDD60801.94328.json